createdAt,value
2022-11-16T00:01:08.464Z,31.20
2022-11-16T00:03:36.587Z,30.60
2022-11-16T00:06:07.196Z,33.10
2022-11-16T00:08:38.687Z,32.60
2022-11-16T00:11:12.020Z,28.50
2022-11-16T00:13:41.947Z,31.20
2022-11-16T00:16:18.405Z,28.40
2022-11-16T00:18:46.447Z,24.60
2022-11-16T00:21:14.770Z,22.20
2022-11-16T00:23:42.754Z,28.20
2022-11-16T00:26:12.976Z,29.00
2022-11-16T00:28:41.005Z,23.00
2022-11-16T00:31:09.911Z,20.70
2022-11-16T00:33:38.852Z,20.10
2022-11-16T00:36:10.637Z,18.70
2022-11-16T00:38:39.013Z,23.10
2022-11-16T00:41:08.322Z,21.40
2022-11-16T00:43:37.283Z,13.40
2022-11-16T00:46:06.225Z,16.30
2022-11-16T00:48:34.701Z,18.90
2022-11-16T00:51:03.715Z,21.40
2022-11-16T00:53:32.306Z,15.90
2022-11-16T00:56:00.593Z,14.70
2022-11-16T00:58:30.576Z,13.20
2022-11-16T01:01:06.526Z,19.70
2022-11-16T01:03:36.306Z,18.60
2022-11-16T01:06:07.171Z,16.40
2022-11-16T01:08:37.218Z,15.60
2022-11-16T01:11:25.028Z,13.80
2022-11-16T01:13:53.726Z,12.40
2022-11-16T01:16:23.223Z,14.80
2022-11-16T01:18:53.354Z,14.20
2022-11-16T01:21:23.173Z,15.80
2022-11-16T01:23:51.942Z,15.80
2022-11-16T01:26:20.201Z,15.10
2022-11-16T01:28:48.718Z,15.80
2022-11-16T01:31:16.744Z,15.20
2022-11-16T01:33:44.867Z,13.70
2022-11-16T01:36:21.584Z,19.30
2022-11-16T01:38:50.781Z,20.20
2022-11-16T01:41:24.040Z,16.60
2022-11-16T01:44:02.441Z,19.10
2022-11-16T01:46:46.475Z,18.50
2022-11-16T01:49:20.804Z,16.20
2022-11-16T01:51:55.471Z,17.90
2022-11-16T01:54:24.642Z,19.70
2022-11-16T01:57:00.521Z,17.80
2022-11-16T01:59:40.273Z,19.70
2022-11-16T02:02:13.255Z,20.40
2022-11-16T02:04:42.271Z,19.50
2022-11-16T02:07:27.167Z,20.80
2022-11-16T02:10:03.096Z,20.40
2022-11-16T02:12:56.671Z,20.20
2022-11-16T02:15:55.928Z,23.10
2022-11-16T02:19:11.707Z,18.30
2022-11-16T02:21:51.573Z,16.00
2022-11-16T02:24:43.805Z,20.50
2022-11-16T02:27:53.752Z,17.20
2022-11-16T02:30:24.200Z,17.30
2022-11-16T02:33:01.819Z,14.20
2022-11-16T02:35:39.001Z,15.00
2022-11-16T02:38:15.573Z,12.80
2022-11-16T02:40:48.427Z,16.00
2022-11-16T02:43:26.560Z,14.70
2022-11-16T02:45:59.645Z,18.30
2022-11-16T02:48:34.519Z,15.80
2022-11-16T02:51:06.591Z,16.00
2022-11-16T02:53:51.454Z,15.50
2022-11-16T02:56:20.965Z,14.30
2022-11-16T02:58:49.662Z,15.70
2022-11-16T03:01:27.644Z,16.90
2022-11-16T03:04:06.122Z,18.00
2022-11-16T03:09:16.515Z,16.20
2022-11-16T03:12:00.162Z,18.40
2022-11-16T03:14:40.619Z,17.10
2022-11-16T03:17:16.696Z,16.50
2022-11-16T03:19:51.940Z,15.40
2022-11-16T03:22:38.857Z,19.50
2022-11-16T03:25:08.893Z,18.90
2022-11-16T03:27:46.073Z,18.50
2022-11-16T03:30:23.819Z,17.20
2022-11-16T03:33:06.711Z,18.10
2022-11-16T03:35:44.251Z,15.90
2022-11-16T03:38:15.508Z,18.30
2022-11-16T03:40:47.627Z,18.20
2022-11-16T03:43:18.798Z,15.70
2022-11-16T03:45:47.487Z,15.80
2022-11-16T03:50:44.175Z,14.50
2022-11-16T03:53:12.423Z,16.30
2022-11-16T03:55:42.572Z,14.00
2022-11-16T03:58:14.024Z,11.90
2022-11-16T04:00:42.090Z,15.70
2022-11-16T04:03:11.025Z,17.20
2022-11-16T04:05:58.356Z,16.20
2022-11-16T04:08:45.382Z,15.90
2022-11-16T04:11:35.682Z,16.60
2022-11-16T04:14:23.425Z,15.70
2022-11-16T04:17:10.449Z,16.80
2022-11-16T04:19:58.355Z,15.70
2022-11-16T04:23:12.544Z,16.60
2022-11-16T04:25:43.830Z,15.00
2022-11-16T04:28:24.088Z,15.90
2022-11-16T04:31:17.552Z,18.20
2022-11-16T04:34:24.559Z,17.60
2022-11-16T04:37:13.083Z,23.90
2022-11-16T04:39:41.488Z,39.10
2022-11-16T04:42:20.005Z,43.20
2022-11-16T04:45:09.700Z,42.10
2022-11-16T04:47:43.991Z,28.10
2022-11-16T04:50:12.342Z,35.00
2022-11-16T04:52:41.309Z,30.20
2022-11-16T04:55:12.872Z,28.90
2022-11-16T04:57:41.259Z,27.80
2022-11-16T05:00:10.468Z,22.10
2022-11-16T05:02:38.955Z,22.70
2022-11-16T05:05:08.067Z,22.30
2022-11-16T05:07:37.482Z,25.10
2022-11-16T05:10:12.509Z,24.10
2022-11-16T05:12:40.888Z,18.00
2022-11-16T05:15:10.352Z,19.10
2022-11-16T05:20:29.592Z,24.30
2022-11-16T05:23:01.738Z,25.40
2022-11-16T05:25:36.511Z,33.10
2022-11-16T05:28:07.248Z,23.20
2022-11-16T05:30:38.387Z,20.20
2022-11-16T05:33:06.779Z,19.10
2022-11-16T05:35:38.763Z,24.20
2022-11-16T05:40:39.114Z,19.40
2022-11-16T05:43:07.982Z,19.30
2022-11-16T05:45:40.070Z,21.30
2022-11-16T05:53:15.745Z,22.10
2022-11-16T05:55:43.967Z,23.80
2022-11-16T05:58:12.466Z,26.30
2022-11-16T06:00:41.062Z,22.40
2022-11-16T06:03:10.396Z,17.60
2022-11-16T06:05:40.675Z,18.80
2022-11-16T06:08:10.365Z,18.20
2022-11-16T06:10:38.816Z,24.60
2022-11-16T06:13:07.285Z,26.40
2022-11-16T06:15:40.128Z,25.10
2022-11-16T06:18:09.121Z,25.30
2022-11-16T06:20:39.698Z,31.10
2022-11-16T06:23:07.994Z,24.70
2022-11-16T06:25:39.132Z,27.00
2022-11-16T06:28:08.278Z,29.40
2022-11-16T06:30:39.639Z,29.70
2022-11-16T06:33:07.887Z,35.40
2022-11-16T06:35:36.333Z,30.80
2022-11-16T06:38:05.633Z,32.20
2022-11-16T06:40:34.263Z,33.70
2022-11-16T06:43:03.005Z,32.20
2022-11-16T06:45:31.188Z,48.60
2022-11-16T06:48:00.795Z,31.40
2022-11-16T06:50:29.344Z,31.90
2022-11-16T06:53:00.928Z,27.70
2022-11-16T06:55:29.948Z,30.60
2022-11-16T06:57:58.408Z,28.40
2022-11-16T07:00:28.116Z,25.30
2022-11-16T07:02:57.212Z,30.10
2022-11-16T07:05:25.685Z,29.40
2022-11-16T07:07:55.729Z,26.50
2022-11-16T07:10:25.431Z,27.00
2022-11-16T07:12:53.810Z,27.40
2022-11-16T07:15:22.610Z,26.20
2022-11-16T07:17:50.757Z,27.40
2022-11-16T07:22:48.416Z,38.70
2022-11-16T07:25:17.224Z,32.60
2022-11-16T07:30:14.706Z,33.60
2022-11-16T07:33:02.138Z,43.80
2022-11-16T07:36:04.742Z,45.60
2022-11-16T07:38:34.619Z,121.30
2022-11-16T07:41:13.047Z,40.60
2022-11-16T07:43:52.794Z,27.10
2022-11-16T07:46:46.182Z,25.80
2022-11-16T07:49:18.449Z,25.60
2022-11-16T07:51:58.574Z,26.80
2022-11-16T07:54:47.366Z,27.40
2022-11-16T07:57:15.741Z,26.10
2022-11-16T07:59:43.973Z,36.30
2022-11-16T08:02:13.332Z,29.70
2022-11-16T08:04:42.828Z,30.50
2022-11-16T08:07:11.712Z,22.70
2022-11-16T08:09:50.151Z,40.70
2022-11-16T08:12:18.521Z,32.80
2022-11-16T08:14:48.128Z,43.20
2022-11-16T08:17:16.414Z,45.60
2022-11-16T08:19:45.299Z,24.10
2022-11-16T08:22:15.459Z,27.20
2022-11-16T08:24:43.713Z,32.50
2022-11-16T08:27:15.668Z,27.20
2022-11-16T08:29:44.647Z,28.10
2022-11-16T08:32:13.929Z,20.00
2022-11-16T08:34:42.391Z,23.80
2022-11-16T08:37:11.060Z,25.90
2022-11-16T08:39:43.045Z,22.50
2022-11-16T08:42:11.596Z,19.80
2022-11-16T08:47:12.437Z,23.30
2022-11-16T08:49:49.577Z,24.70
2022-11-16T08:52:18.708Z,19.70
2022-11-16T08:54:47.408Z,16.30
2022-11-16T08:57:16.223Z,20.50
2022-11-16T08:59:45.131Z,20.00
2022-11-16T09:02:14.647Z,20.80
2022-11-16T09:04:43.975Z,19.90
2022-11-16T09:07:12.342Z,21.30
2022-11-16T09:09:40.407Z,23.30
2022-11-16T09:12:08.724Z,35.90
2022-11-16T09:14:37.097Z,28.80
2022-11-16T09:17:05.139Z,30.40
2022-11-16T09:19:33.372Z,30.90
2022-11-16T09:22:02.137Z,44.50
2022-11-16T09:24:30.391Z,34.50
2022-11-16T09:27:01.607Z,31.40
2022-11-16T09:29:30.191Z,31.50
2022-11-16T09:31:58.694Z,30.10
2022-11-16T09:34:26.822Z,32.30
2022-11-16T09:36:55.386Z,36.90
2022-11-16T09:39:30.937Z,37.80
2022-11-16T09:42:20.305Z,62.30
2022-11-16T09:45:27.489Z,36.50
2022-11-16T09:47:59.571Z,37.00
2022-11-16T09:50:33.692Z,24.90
2022-11-16T09:53:30.614Z,25.30
2022-11-16T09:56:01.657Z,24.10
2022-11-16T09:58:48.185Z,27.10
2022-11-16T10:01:48.028Z,19.30
2022-11-16T10:04:56.691Z,20.00
2022-11-16T10:07:44.383Z,21.20
2022-11-16T10:10:15.175Z,24.00
2022-11-16T10:13:16.569Z,23.20
2022-11-16T10:15:56.789Z,21.00
2022-11-16T10:18:43.230Z,21.20
2022-11-16T10:21:31.406Z,19.70
2022-11-16T10:24:21.129Z,22.50
2022-11-16T10:27:10.822Z,18.40
2022-11-16T10:30:06.977Z,26.60
2022-11-16T10:32:41.406Z,20.10
2022-11-16T10:35:12.386Z,18.40
2022-11-16T10:37:52.022Z,20.00
2022-11-16T10:40:25.100Z,21.50
2022-11-16T10:43:15.479Z,18.30
2022-11-16T10:45:52.192Z,20.20
2022-11-16T10:48:46.966Z,21.00
2022-11-16T10:51:15.463Z,22.40
2022-11-16T10:53:44.562Z,20.90
2022-11-16T10:56:20.001Z,23.00
2022-11-16T10:58:58.518Z,18.60
2022-11-16T11:04:31.529Z,21.80
2022-11-16T11:07:01.295Z,22.90
2022-11-16T11:09:32.825Z,21.50
2022-11-16T11:12:34.379Z,20.50
2022-11-16T11:15:06.313Z,20.70
2022-11-16T11:17:36.579Z,21.70
2022-11-16T11:20:18.418Z,20.00
2022-11-16T11:22:58.186Z,20.70
2022-11-16T11:25:29.322Z,20.00
2022-11-16T11:28:16.963Z,20.60
2022-11-16T11:30:59.410Z,18.50
2022-11-16T11:33:33.887Z,16.60
2022-11-16T11:36:06.591Z,23.60
2022-11-16T11:38:54.630Z,22.40
2022-11-16T11:41:24.008Z,33.10
2022-11-16T11:44:06.639Z,22.00
2022-11-16T11:47:18.277Z,28.00
2022-11-16T11:49:34.063Z,24.20
2022-11-16T11:52:21.533Z,20.50
2022-11-16T11:54:52.944Z,20.20
2022-11-16T11:57:23.382Z,23.00
2022-11-16T11:59:54.488Z,20.40
2022-11-16T12:03:22.811Z,21.00
2022-11-16T12:06:02.376Z,22.80
2022-11-16T12:08:49.390Z,18.70
2022-11-16T12:11:23.253Z,25.50
2022-11-16T12:14:16.496Z,35.20
2022-11-16T12:17:31.337Z,28.30
2022-11-16T12:20:11.811Z,19.70
2022-11-16T12:23:11.163Z,20.80
2022-11-16T12:25:57.737Z,20.90
2022-11-16T12:28:51.016Z,22.40
2022-11-16T12:31:41.236Z,20.50
2022-11-16T12:34:32.287Z,24.00
2022-11-16T12:37:03.076Z,20.50
2022-11-16T12:39:31.168Z,19.80
2022-11-16T12:42:40.619Z,21.00
2022-11-16T12:45:31.970Z,19.30
2022-11-16T12:48:38.243Z,22.70
2022-11-16T12:51:31.586Z,24.20
2022-11-16T12:54:27.414Z,28.60
2022-11-16T12:57:15.364Z,18.40
2022-11-16T13:00:17.080Z,20.40
2022-11-16T13:03:39.608Z,26.20
2022-11-16T13:06:13.568Z,22.50
2022-11-16T13:09:01.916Z,24.40
2022-11-16T13:11:40.430Z,23.20
2022-11-16T13:14:17.217Z,21.40
2022-11-16T13:16:46.975Z,21.30
2022-11-16T13:19:17.355Z,23.90
2022-11-16T13:22:07.344Z,28.40
2022-11-16T13:24:58.821Z,23.50
2022-11-16T13:27:35.130Z,21.10
2022-11-16T13:30:16.599Z,23.40
2022-11-16T13:33:00.975Z,25.60
2022-11-16T13:35:29.863Z,28.90
2022-11-16T13:40:29.494Z,31.60
2022-11-16T13:43:11.517Z,33.20
2022-11-16T13:45:53.942Z,31.90
2022-11-16T13:48:34.502Z,27.80
2022-11-16T13:51:09.392Z,30.30
2022-11-16T13:57:02.791Z,29.90
2022-11-16T13:59:34.716Z,21.40
2022-11-16T14:02:25.774Z,29.00
2022-11-16T14:04:56.102Z,26.80
2022-11-16T14:07:28.961Z,41.80
2022-11-16T14:09:57.629Z,30.40
2022-11-16T14:12:38.038Z,29.10
2022-11-16T14:15:24.364Z,26.20
2022-11-16T14:17:57.257Z,23.00
2022-11-16T14:20:39.733Z,28.70
2022-11-16T14:23:24.191Z,19.90
2022-11-16T14:26:10.611Z,20.70
2022-11-16T14:28:44.926Z,21.80
2022-11-16T14:31:12.994Z,23.30
2022-11-16T14:33:41.490Z,37.90
2022-11-16T14:36:10.893Z,20.40
2022-11-16T14:38:42.133Z,28.40
2022-11-16T14:41:21.369Z,23.00
2022-11-16T14:43:54.589Z,22.10
2022-11-16T14:46:27.072Z,23.00
2022-11-16T14:48:57.369Z,28.60
2022-11-16T14:51:37.231Z,27.30
2022-11-16T14:54:14.828Z,27.00
2022-11-16T14:57:00.725Z,33.90
2022-11-16T14:59:30.727Z,29.30
2022-11-16T15:02:04.360Z,26.90
2022-11-16T15:04:33.037Z,24.30
2022-11-16T15:09:39.535Z,23.90
2022-11-16T15:12:34.753Z,30.80
2022-11-16T15:15:30.073Z,34.20
2022-11-16T15:18:01.006Z,30.20
2022-11-16T15:20:32.056Z,32.40
2022-11-16T15:23:01.992Z,28.20
2022-11-16T15:25:53.044Z,34.20
2022-11-16T15:28:28.064Z,25.50
2022-11-16T15:30:59.182Z,31.90
2022-11-16T15:33:30.469Z,41.60
2022-11-16T15:35:59.242Z,56.30
2022-11-16T15:40:58.655Z,51.90
2022-11-16T15:43:31.557Z,39.30
2022-11-16T15:46:01.493Z,50.80
2022-11-16T15:48:30.462Z,31.90
2022-11-16T15:51:15.357Z,23.20
2022-11-16T15:53:45.925Z,49.40
2022-11-16T15:56:16.804Z,30.40
2022-11-16T15:58:46.377Z,20.80
2022-11-16T16:01:15.662Z,19.50
2022-11-16T16:04:05.743Z,23.50
2022-11-16T16:06:55.637Z,22.10
2022-11-16T16:09:36.917Z,32.50
2022-11-16T16:12:21.009Z,23.20
2022-11-16T16:14:51.360Z,24.10
2022-11-16T16:17:25.701Z,23.60
2022-11-16T16:20:02.890Z,21.10
2022-11-16T16:22:34.991Z,26.30
2022-11-16T16:25:07.299Z,24.60
2022-11-16T16:27:41.465Z,39.70
2022-11-16T16:30:14.688Z,38.00
2022-11-16T16:32:42.646Z,27.60
2022-11-16T16:35:17.951Z,27.60
2022-11-16T16:37:50.069Z,28.40
2022-11-16T16:40:19.046Z,29.00
2022-11-16T16:42:51.036Z,28.10
2022-11-16T16:45:24.520Z,22.20
2022-11-16T16:47:52.702Z,24.10
2022-11-16T16:50:20.990Z,21.50
2022-11-16T16:52:49.475Z,25.00
2022-11-16T16:55:17.454Z,22.00
2022-11-16T16:57:45.761Z,32.00
2022-11-16T17:00:14.382Z,34.70
2022-11-16T17:02:42.391Z,35.70
2022-11-16T17:05:10.440Z,28.20
2022-11-16T17:07:38.613Z,28.40
2022-11-16T17:10:06.952Z,27.20
2022-11-16T17:12:35.233Z,22.30
2022-11-16T17:15:03.663Z,25.80
2022-11-16T17:17:31.700Z,36.10
2022-11-16T17:20:00.039Z,25.40
2022-11-16T17:22:28.144Z,25.00
2022-11-16T17:24:56.356Z,26.30
2022-11-16T17:27:24.641Z,25.70
2022-11-16T17:29:52.689Z,20.20
2022-11-16T17:32:20.690Z,18.70
2022-11-16T17:34:48.768Z,16.70
2022-11-16T17:37:16.849Z,17.40
2022-11-16T17:39:44.883Z,19.70
2022-11-16T17:42:13.171Z,21.00
2022-11-16T17:44:41.288Z,20.80
2022-11-16T17:47:09.273Z,32.60
2022-11-16T17:49:37.424Z,24.60
2022-11-16T17:52:06.439Z,27.10
2022-11-16T17:54:34.518Z,24.20
2022-11-16T17:57:02.696Z,21.70
2022-11-16T17:59:30.981Z,23.90
2022-11-16T18:01:59.061Z,27.30
2022-11-16T18:04:27.129Z,26.90
2022-11-16T18:06:56.209Z,19.90
2022-11-16T18:09:24.521Z,21.60
2022-11-16T18:11:52.602Z,18.30
2022-11-16T18:14:20.784Z,19.50
2022-11-16T18:16:48.971Z,19.20
2022-11-16T18:19:18.699Z,22.30
2022-11-16T18:21:46.972Z,25.00
2022-11-16T18:24:15.472Z,25.50
2022-11-16T18:26:43.931Z,26.90
2022-11-16T18:29:15.528Z,22.70
2022-11-16T18:31:43.732Z,26.30
2022-11-16T18:34:14.555Z,21.80
2022-11-16T18:36:42.653Z,22.30
2022-11-16T18:39:10.849Z,16.90
2022-11-16T18:41:46.550Z,20.60
2022-11-16T18:44:18.196Z,18.60
2022-11-16T18:46:46.276Z,19.10
2022-11-16T18:49:15.385Z,17.60
2022-11-16T18:51:43.461Z,21.40
2022-11-16T18:54:11.539Z,19.40
2022-11-16T18:56:39.464Z,19.90
2022-11-16T18:59:07.456Z,17.90
2022-11-16T19:01:35.523Z,17.20
2022-11-16T19:04:03.792Z,19.80
2022-11-16T19:06:32.164Z,19.80
2022-11-16T19:09:00.353Z,20.70
2022-11-16T19:11:29.128Z,19.30
2022-11-16T19:14:07.851Z,31.20
2022-11-16T19:16:36.300Z,20.00
2022-11-16T19:19:04.520Z,20.10
2022-11-16T19:21:32.570Z,22.50
2022-11-16T19:24:00.565Z,19.00
2022-11-16T19:26:28.665Z,16.20
2022-11-16T19:28:56.671Z,16.40
2022-11-16T19:31:27.345Z,21.90
2022-11-16T19:34:07.892Z,22.10
2022-11-16T19:36:37.270Z,21.10
2022-11-16T19:39:06.109Z,24.10
2022-11-16T19:44:02.642Z,20.20
2022-11-16T19:46:32.792Z,25.50
2022-11-16T19:49:01.221Z,21.90
2022-11-16T19:51:32.191Z,19.70
2022-11-16T19:54:02.532Z,18.30
2022-11-16T19:56:31.230Z,22.10
2022-11-16T19:58:59.274Z,19.70
2022-11-16T20:01:29.598Z,17.00
2022-11-16T20:04:00.764Z,17.40
2022-11-16T20:06:37.773Z,15.30
2022-11-16T20:09:09.254Z,16.80
2022-11-16T20:11:39.977Z,15.80
2022-11-16T20:14:11.649Z,17.10
2022-11-16T20:16:41.256Z,17.30
2022-11-16T20:19:10.474Z,16.70
2022-11-16T20:21:40.675Z,18.10
2022-11-16T20:24:14.047Z,19.80
2022-11-16T20:26:45.023Z,19.00
2022-11-16T20:29:14.600Z,18.50
2022-11-16T20:31:45.320Z,16.80
2022-11-16T20:34:16.609Z,16.20
2022-11-16T20:36:46.540Z,17.00
2022-11-16T20:39:16.794Z,13.80
2022-11-16T20:41:45.386Z,14.70
2022-11-16T20:44:21.197Z,12.20
2022-11-16T20:46:52.236Z,11.70
2022-11-16T20:49:20.512Z,10.80
2022-11-16T20:51:49.708Z,12.60
2022-11-16T20:54:17.794Z,11.40
2022-11-16T20:56:48.329Z,11.50
2022-11-16T20:59:16.747Z,13.00
2022-11-16T21:01:47.965Z,11.00
2022-11-16T21:04:16.507Z,12.80
2022-11-16T21:06:44.652Z,14.50
2022-11-16T21:09:15.725Z,13.10
2022-11-16T21:12:02.622Z,13.90
2022-11-16T21:14:30.697Z,11.40
2022-11-16T21:16:58.983Z,14.00
2022-11-16T21:19:27.063Z,13.60
2022-11-16T21:21:55.118Z,17.90
2022-11-16T21:24:24.833Z,11.70
2022-11-16T21:26:53.557Z,9.40
2022-11-16T21:31:54.100Z,11.30
2022-11-16T21:34:24.459Z,10.30
2022-11-16T21:36:52.635Z,11.00
2022-11-16T21:39:20.615Z,11.10
2022-11-16T21:41:48.697Z,13.10
2022-11-16T21:44:16.673Z,10.70
2022-11-16T21:46:44.849Z,12.80
2022-11-16T21:49:12.834Z,14.10
2022-11-16T21:51:40.912Z,13.80
2022-11-16T21:54:08.886Z,15.40
2022-11-16T21:56:36.843Z,12.30
2022-11-16T21:59:05.617Z,12.70
2022-11-16T22:01:53.825Z,12.20
2022-11-16T22:04:40.842Z,12.60
2022-11-16T22:07:32.941Z,23.80
2022-11-16T22:10:02.613Z,17.90
2022-11-16T22:12:30.796Z,14.70
2022-11-16T22:14:59.004Z,14.50
2022-11-16T22:17:27.451Z,15.30
2022-11-16T22:19:55.756Z,12.10
2022-11-16T22:22:24.571Z,12.60
2022-11-16T22:27:21.132Z,12.10
2022-11-16T22:29:49.347Z,11.90
2022-11-16T22:32:17.336Z,9.50
2022-11-16T22:34:45.314Z,10.80
2022-11-16T22:37:13.360Z,12.60
2022-11-16T22:39:41.448Z,14.00
2022-11-16T22:42:09.724Z,11.60
2022-11-16T22:44:37.800Z,12.60
2022-11-16T22:47:05.881Z,14.60
2022-11-16T22:49:33.961Z,13.00
2022-11-16T22:52:02.171Z,11.40
2022-11-16T22:54:31.149Z,10.90
2022-11-16T22:59:29.664Z,12.80
2022-11-16T23:01:57.744Z,13.00
2022-11-16T23:04:26.032Z,13.80
2022-11-16T23:06:54.224Z,13.60
2022-11-16T23:09:22.199Z,14.10
2022-11-16T23:12:08.911Z,15.80
2022-11-16T23:14:57.249Z,14.10
2022-11-16T23:17:25.352Z,16.20
2022-11-16T23:20:17.289Z,15.50
2022-11-16T23:23:04.316Z,15.50
2022-11-16T23:25:51.754Z,13.00
2022-11-16T23:28:20.346Z,11.40
2022-11-16T23:30:48.408Z,13.30
2022-11-16T23:33:16.713Z,13.50
2022-11-16T23:35:44.828Z,10.90
2022-11-16T23:38:12.879Z,10.40
2022-11-16T23:40:40.852Z,13.00
2022-11-16T23:43:29.610Z,12.20
2022-11-16T23:45:57.603Z,11.10
2022-11-16T23:48:25.680Z,13.70
2022-11-16T23:50:53.763Z,10.70
2022-11-16T23:53:21.735Z,11.90
2022-11-16T23:55:49.718Z,9.90
2022-11-16T23:58:17.694Z,10.20
